sensor_id;sensor_type;location;lat;lon;timestamp;P1;durP1;ratioP1;P2;durP2;ratioP2
15677;SDS011;7939;50.814;6.368;2023-06-26T00:02:00;5.80;;;5.13;;
15677;SDS011;7939;50.814;6.368;2023-06-26T00:04:26;5.45;;;4.68;;
15677;SDS011;7939;50.814;6.368;2023-06-26T00:06:53;6.30;;;5.00;;
15677;SDS011;7939;50.814;6.368;2023-06-26T00:09:20;6.10;;;5.30;;
15677;SDS011;7939;50.814;6.368;2023-06-26T00:11:46;6.55;;;5.30;;
15677;SDS011;7939;50.814;6.368;2023-06-26T00:14:14;5.13;;;4.63;;
15677;SDS011;7939;50.814;6.368;2023-06-26T00:16:41;6.60;;;5.60;;
15677;SDS011;7939;50.814;6.368;2023-06-26T00:19:07;5.78;;;5.22;;
15677;SDS011;7939;50.814;6.368;2023-06-26T00:21:34;5.72;;;5.13;;
15677;SDS011;7939;50.814;6.368;2023-06-26T00:24:01;5.82;;;5.22;;
15677;SDS011;7939;50.814;6.368;2023-06-26T00:26:27;6.32;;;5.50;;
15677;SDS011;7939;50.814;6.368;2023-06-26T00:28:54;6.25;;;4.90;;
15677;SDS011;7939;50.814;6.368;2023-06-26T00:31:22;6.85;;;5.20;;
15677;SDS011;7939;50.814;6.368;2023-06-26T00:33:49;6.20;;;5.30;;
15677;SDS011;7939;50.814;6.368;2023-06-26T00:36:15;5.63;;;5.07;;
15677;SDS011;7939;50.814;6.368;2023-06-26T00:38:42;7.03;;;5.30;;
15677;SDS011;7939;50.814;6.368;2023-06-26T00:41:09;5.28;;;4.78;;
15677;SDS011;7939;50.814;6.368;2023-06-26T00:43:37;7.53;;;4.80;;
15677;SDS011;7939;50.814;6.368;2023-06-26T00:46:05;4.97;;;4.40;;
15677;SDS011;7939;50.814;6.368;2023-06-26T00:48:36;6.68;;;4.90;;
15677;SDS011;7939;50.814;6.368;2023-06-26T00:51:05;5.65;;;4.88;;
15677;SDS011;7939;50.814;6.368;2023-06-26T00:53:32;4.68;;;4.25;;
15677;SDS011;7939;50.814;6.368;2023-06-26T00:55:59;6.20;;;4.80;;
15677;SDS011;7939;50.814;6.368;2023-06-26T00:58:27;5.10;;;4.50;;
15677;SDS011;7939;50.814;6.368;2023-06-26T01:00:54;6.30;;;4.78;;
15677;SDS011;7939;50.814;6.368;2023-06-26T01:03:21;5.50;;;4.95;;
15677;SDS011;7939;50.814;6.368;2023-06-26T01:05:50;5.85;;;5.13;;
15677;SDS011;7939;50.814;6.368;2023-06-26T01:08:18;6.28;;;5.25;;
15677;SDS011;7939;50.814;6.368;2023-06-26T01:10:45;6.93;;;5.38;;
15677;SDS011;7939;50.814;6.368;2023-06-26T01:13:13;7.18;;;5.75;;
15677;SDS011;7939;50.814;6.368;2023-06-26T01:15:41;5.90;;;5.10;;
15677;SDS011;7939;50.814;6.368;2023-06-26T01:18:08;6.15;;;5.13;;
15677;SDS011;7939;50.814;6.368;2023-06-26T01:20:35;5.63;;;4.97;;
15677;SDS011;7939;50.814;6.368;2023-06-26T01:23:07;5.40;;;4.32;;
15677;SDS011;7939;50.814;6.368;2023-06-26T01:25:41;6.57;;;5.35;;
15677;SDS011;7939;50.814;6.368;2023-06-26T01:28:22;7.38;;;5.03;;
15677;SDS011;7939;50.814;6.368;2023-06-26T01:30:50;5.38;;;4.70;;
15677;SDS011;7939;50.814;6.368;2023-06-26T01:33:17;5.95;;;4.60;;
15677;SDS011;7939;50.814;6.368;2023-06-26T01:35:44;5.68;;;4.40;;
15677;SDS011;7939;50.814;6.368;2023-06-26T01:38:12;6.07;;;4.65;;
15677;SDS011;7939;50.814;6.368;2023-06-26T01:40:40;5.07;;;4.25;;
15677;SDS011;7939;50.814;6.368;2023-06-26T01:43:06;5.47;;;4.60;;
15677;SDS011;7939;50.814;6.368;2023-06-26T01:45:43;5.38;;;4.78;;
15677;SDS011;7939;50.814;6.368;2023-06-26T01:48:12;6.22;;;4.63;;
15677;SDS011;7939;50.814;6.368;2023-06-26T01:50:41;5.90;;;4.20;;
15677;SDS011;7939;50.814;6.368;2023-06-26T01:53:10;6.55;;;4.80;;
15677;SDS011;7939;50.814;6.368;2023-06-26T01:55:40;6.05;;;4.45;;
15677;SDS011;7939;50.814;6.368;2023-06-26T01:58:12;5.32;;;4.57;;
15677;SDS011;7939;50.814;6.368;2023-06-26T02:00:43;5.70;;;4.80;;
15677;SDS011;7939;50.814;6.368;2023-06-26T02:03:09;5.38;;;4.88;;
15677;SDS011;7939;50.814;6.368;2023-06-26T02:05:36;5.70;;;5.00;;
15677;SDS011;7939;50.814;6.368;2023-06-26T02:08:03;6.38;;;5.03;;
15677;SDS011;7939;50.814;6.368;2023-06-26T02:10:30;6.88;;;4.40;;
15677;SDS011;7939;50.814;6.368;2023-06-26T02:12:57;5.88;;;4.80;;
15677;SDS011;7939;50.814;6.368;2023-06-26T02:15:24;6.68;;;4.93;;
15677;SDS011;7939;50.814;6.368;2023-06-26T02:17:52;5.15;;;4.40;;
15677;SDS011;7939;50.814;6.368;2023-06-26T02:20:19;6.43;;;4.78;;
15677;SDS011;7939;50.814;6.368;2023-06-26T02:22:45;6.10;;;4.78;;
15677;SDS011;7939;50.814;6.368;2023-06-26T02:25:12;7.55;;;4.78;;
15677;SDS011;7939;50.814;6.368;2023-06-26T02:27:38;5.13;;;4.30;;
15677;SDS011;7939;50.814;6.368;2023-06-26T02:30:05;5.82;;;5.05;;
15677;SDS011;7939;50.814;6.368;2023-06-26T02:32:34;6.15;;;4.95;;
15677;SDS011;7939;50.814;6.368;2023-06-26T02:35:01;5.07;;;4.57;;
15677;SDS011;7939;50.814;6.368;2023-06-26T02:37:28;6.20;;;4.90;;
15677;SDS011;7939;50.814;6.368;2023-06-26T02:39:55;6.68;;;5.30;;
15677;SDS011;7939;50.814;6.368;2023-06-26T02:42:21;6.35;;;5.22;;
15677;SDS011;7939;50.814;6.368;2023-06-26T02:44:48;5.68;;;4.63;;
15677;SDS011;7939;50.814;6.368;2023-06-26T02:47:15;8.80;;;4.80;;
15677;SDS011;7939;50.814;6.368;2023-06-26T02:49:42;5.63;;;4.70;;
15677;SDS011;7939;50.814;6.368;2023-06-26T02:52:10;5.70;;;4.47;;
15677;SDS011;7939;50.814;6.368;2023-06-26T02:54:36;6.43;;;4.88;;
15677;SDS011;7939;50.814;6.368;2023-06-26T02:57:03;6.45;;;5.22;;
15677;SDS011;7939;50.814;6.368;2023-06-26T02:59:30;5.57;;;4.85;;
15677;SDS011;7939;50.814;6.368;2023-06-26T03:01:57;8.48;;;5.38;;
15677;SDS011;7939;50.814;6.368;2023-06-26T03:04:24;5.85;;;5.25;;
15677;SDS011;7939;50.814;6.368;2023-06-26T03:06:50;7.18;;;5.57;;
15677;SDS011;7939;50.814;6.368;2023-06-26T03:09:18;6.95;;;5.50;;
15677;SDS011;7939;50.814;6.368;2023-06-26T03:11:45;8.95;;;6.13;;
15677;SDS011;7939;50.814;6.368;2023-06-26T03:14:11;5.80;;;4.93;;
15677;SDS011;7939;50.814;6.368;2023-06-26T03:16:38;8.38;;;5.68;;
15677;SDS011;7939;50.814;6.368;2023-06-26T03:19:05;5.97;;;4.65;;
15677;SDS011;7939;50.814;6.368;2023-06-26T03:21:32;6.57;;;5.57;;
15677;SDS011;7939;50.814;6.368;2023-06-26T03:23:59;8.07;;;5.22;;
15677;SDS011;7939;50.814;6.368;2023-06-26T03:26:27;6.55;;;5.20;;
15677;SDS011;7939;50.814;6.368;2023-06-26T03:28:54;8.00;;;6.35;;
15677;SDS011;7939;50.814;6.368;2023-06-26T03:31:20;7.93;;;5.88;;
15677;SDS011;7939;50.814;6.368;2023-06-26T03:33:47;7.15;;;5.35;;
15677;SDS011;7939;50.814;6.368;2023-06-26T03:36:14;9.38;;;5.65;;
15677;SDS011;7939;50.814;6.368;2023-06-26T03:38:40;9.05;;;5.57;;
15677;SDS011;7939;50.814;6.368;2023-06-26T03:41:07;6.03;;;5.10;;
15677;SDS011;7939;50.814;6.368;2023-06-26T03:43:35;8.25;;;4.88;;
15677;SDS011;7939;50.814;6.368;2023-06-26T03:46:02;7.22;;;5.25;;
15677;SDS011;7939;50.814;6.368;2023-06-26T03:48:29;7.93;;;4.80;;
15677;SDS011;7939;50.814;6.368;2023-06-26T03:50:55;8.52;;;5.20;;
15677;SDS011;7939;50.814;6.368;2023-06-26T03:53:22;6.10;;;4.78;;
15677;SDS011;7939;50.814;6.368;2023-06-26T03:55:48;6.85;;;4.63;;
15677;SDS011;7939;50.814;6.368;2023-06-26T03:58:15;5.97;;;4.60;;
15677;SDS011;7939;50.814;6.368;2023-06-26T04:00:43;5.22;;;4.25;;
15677;SDS011;7939;50.814;6.368;2023-06-26T04:03:10;7.88;;;4.60;;
15677;SDS011;7939;50.814;6.368;2023-06-26T04:05:36;6.68;;;4.82;;
15677;SDS011;7939;50.814;6.368;2023-06-26T04:08:03;4.80;;;4.22;;
15677;SDS011;7939;50.814;6.368;2023-06-26T04:10:29;6.32;;;4.72;;
15677;SDS011;7939;50.814;6.368;2023-06-26T04:12:56;6.28;;;4.97;;
15677;SDS011;7939;50.814;6.368;2023-06-26T04:15:23;6.53;;;4.78;;
15677;SDS011;7939;50.814;6.368;2023-06-26T04:17:50;6.28;;;4.82;;
15677;SDS011;7939;50.814;6.368;2023-06-26T04:20:17;6.53;;;4.78;;
15677;SDS011;7939;50.814;6.368;2023-06-26T04:22:44;7.97;;;4.93;;
15677;SDS011;7939;50.814;6.368;2023-06-26T04:25:10;6.88;;;4.78;;
15677;SDS011;7939;50.814;6.368;2023-06-26T04:27:37;6.15;;;4.72;;
15677;SDS011;7939;50.814;6.368;2023-06-26T04:30:05;5.55;;;4.45;;
15677;SDS011;7939;50.814;6.368;2023-06-26T04:32:33;6.63;;;4.50;;
15677;SDS011;7939;50.814;6.368;2023-06-26T04:35:00;6.68;;;4.45;;
15677;SDS011;7939;50.814;6.368;2023-06-26T04:37:28;6.00;;;4.78;;
15677;SDS011;7939;50.814;6.368;2023-06-26T04:39:54;6.05;;;4.50;;
15677;SDS011;7939;50.814;6.368;2023-06-26T04:42:21;8.10;;;5.00;;
15677;SDS011;7939;50.814;6.368;2023-06-26T04:44:47;16.92;;;4.88;;
15677;SDS011;7939;50.814;6.368;2023-06-26T04:47:14;5.57;;;4.93;;
15677;SDS011;7939;50.814;6.368;2023-06-26T04:49:41;9.77;;;4.40;;
15677;SDS011;7939;50.814;6.368;2023-06-26T04:52:12;9.90;;;4.00;;
15677;SDS011;7939;50.814;6.368;2023-06-26T04:54:39;5.93;;;4.18;;
15677;SDS011;7939;50.814;6.368;2023-06-26T04:57:06;7.60;;;3.92;;
15677;SDS011;7939;50.814;6.368;2023-06-26T04:59:34;7.57;;;4.20;;
15677;SDS011;7939;50.814;6.368;2023-06-26T05:02:00;6.30;;;4.05;;
15677;SDS011;7939;50.814;6.368;2023-06-26T05:04:27;7.90;;;3.80;;
15677;SDS011;7939;50.814;6.368;2023-06-26T05:06:53;5.47;;;3.40;;
15677;SDS011;7939;50.814;6.368;2023-06-26T05:09:21;6.82;;;3.72;;
15677;SDS011;7939;50.814;6.368;2023-06-26T05:11:48;6.13;;;3.60;;
15677;SDS011;7939;50.814;6.368;2023-06-26T05:14:15;6.93;;;3.58;;
15677;SDS011;7939;50.814;6.368;2023-06-26T05:16:41;6.97;;;3.50;;
15677;SDS011;7939;50.814;6.368;2023-06-26T05:19:08;5.50;;;3.33;;
15677;SDS011;7939;50.814;6.368;2023-06-26T05:21:34;7.70;;;3.97;;
15677;SDS011;7939;50.814;6.368;2023-06-26T05:24:02;7.03;;;3.70;;
15677;SDS011;7939;50.814;6.368;2023-06-26T05:26:31;5.53;;;3.35;;
15677;SDS011;7939;50.814;6.368;2023-06-26T05:28:58;4.30;;;3.03;;
15677;SDS011;7939;50.814;6.368;2023-06-26T05:31:25;4.95;;;3.28;;
15677;SDS011;7939;50.814;6.368;2023-06-26T05:33:52;5.75;;;3.58;;
15677;SDS011;7939;50.814;6.368;2023-06-26T05:36:21;5.10;;;3.28;;
15677;SDS011;7939;50.814;6.368;2023-06-26T05:38:49;6.75;;;3.70;;
15677;SDS011;7939;50.814;6.368;2023-06-26T05:41:16;8.25;;;3.47;;
15677;SDS011;7939;50.814;6.368;2023-06-26T05:43:45;5.55;;;4.47;;
15677;SDS011;7939;50.814;6.368;2023-06-26T05:46:11;6.18;;;3.67;;
15677;SDS011;7939;50.814;6.368;2023-06-26T05:48:38;6.10;;;3.42;;
15677;SDS011;7939;50.814;6.368;2023-06-26T05:51:06;5.97;;;3.85;;
15677;SDS011;7939;50.814;6.368;2023-06-26T05:53:33;7.20;;;3.50;;
15677;SDS011;7939;50.814;6.368;2023-06-26T05:56:00;8.98;;;3.65;;
15677;SDS011;7939;50.814;6.368;2023-06-26T05:58:27;7.72;;;4.13;;
15677;SDS011;7939;50.814;6.368;2023-06-26T06:00:55;6.22;;;3.67;;
15677;SDS011;7939;50.814;6.368;2023-06-26T06:03:22;5.90;;;3.88;;
15677;SDS011;7939;50.814;6.368;2023-06-26T06:05:49;9.18;;;3.70;;
15677;SDS011;7939;50.814;6.368;2023-06-26T06:08:16;7.85;;;4.20;;
15677;SDS011;7939;50.814;6.368;2023-06-26T06:10:42;6.72;;;4.32;;
15677;SDS011;7939;50.814;6.368;2023-06-26T06:13:09;9.95;;;4.60;;
15677;SDS011;7939;50.814;6.368;2023-06-26T06:15:36;7.43;;;4.60;;
15677;SDS011;7939;50.814;6.368;2023-06-26T06:18:04;6.70;;;3.97;;
15677;SDS011;7939;50.814;6.368;2023-06-26T06:20:31;9.48;;;4.60;;
15677;SDS011;7939;50.814;6.368;2023-06-26T06:22:58;7.93;;;4.13;;
15677;SDS011;7939;50.814;6.368;2023-06-26T06:25:25;6.70;;;4.65;;
15677;SDS011;7939;50.814;6.368;2023-06-26T06:27:52;8.18;;;4.47;;
15677;SDS011;7939;50.814;6.368;2023-06-26T06:30:18;6.88;;;4.05;;
15677;SDS011;7939;50.814;6.368;2023-06-26T06:32:45;9.25;;;4.70;;
15677;SDS011;7939;50.814;6.368;2023-06-26T06:35:16;9.32;;;4.57;;
15677;SDS011;7939;50.814;6.368;2023-06-26T06:37:43;10.35;;;5.40;;
15677;SDS011;7939;50.814;6.368;2023-06-26T06:40:10;8.63;;;4.78;;
15677;SDS011;7939;50.814;6.368;2023-06-26T06:42:37;8.90;;;4.53;;
15677;SDS011;7939;50.814;6.368;2023-06-26T06:45:04;6.45;;;4.43;;
15677;SDS011;7939;50.814;6.368;2023-06-26T06:47:32;9.43;;;4.82;;
15677;SDS011;7939;50.814;6.368;2023-06-26T06:49:59;10.68;;;5.50;;
15677;SDS011;7939;50.814;6.368;2023-06-26T06:52:34;8.02;;;4.55;;
15677;SDS011;7939;50.814;6.368;2023-06-26T06:55:01;6.65;;;4.40;;
15677;SDS011;7939;50.814;6.368;2023-06-26T06:57:31;6.85;;;5.22;;
15677;SDS011;7939;50.814;6.368;2023-06-26T07:00:01;8.93;;;4.75;;
15677;SDS011;7939;50.814;6.368;2023-06-26T07:02:29;6.65;;;4.38;;
15677;SDS011;7939;50.814;6.368;2023-06-26T07:04:56;8.45;;;4.90;;
15677;SDS011;7939;50.814;6.368;2023-06-26T07:07:22;8.38;;;4.93;;
15677;SDS011;7939;50.814;6.368;2023-06-26T07:09:51;9.38;;;4.80;;
15677;SDS011;7939;50.814;6.368;2023-06-26T07:12:17;6.22;;;4.40;;
15677;SDS011;7939;50.814;6.368;2023-06-26T07:14:44;10.40;;;4.25;;
15677;SDS011;7939;50.814;6.368;2023-06-26T07:17:11;10.30;;;4.43;;
15677;SDS011;7939;50.814;6.368;2023-06-26T07:19:37;8.20;;;4.00;;
15677;SDS011;7939;50.814;6.368;2023-06-26T07:22:04;8.48;;;4.20;;
15677;SDS011;7939;50.814;6.368;2023-06-26T07:24:31;7.28;;;3.80;;
15677;SDS011;7939;50.814;6.368;2023-06-26T07:26:59;6.63;;;3.65;;
15677;SDS011;7939;50.814;6.368;2023-06-26T07:29:26;5.80;;;3.20;;
15677;SDS011;7939;50.814;6.368;2023-06-26T07:31:53;6.90;;;3.10;;
15677;SDS011;7939;50.814;6.368;2023-06-26T07:34:19;6.88;;;3.10;;
15677;SDS011;7939;50.814;6.368;2023-06-26T07:36:46;5.78;;;3.90;;
15677;SDS011;7939;50.814;6.368;2023-06-26T07:39:12;6.88;;;3.88;;
15677;SDS011;7939;50.814;6.368;2023-06-26T07:41:39;4.55;;;3.05;;
15677;SDS011;7939;50.814;6.368;2023-06-26T07:44:07;7.63;;;3.88;;
15677;SDS011;7939;50.814;6.368;2023-06-26T07:46:33;5.53;;;3.00;;
15677;SDS011;7939;50.814;6.368;2023-06-26T07:49:00;7.10;;;3.28;;
15677;SDS011;7939;50.814;6.368;2023-06-26T07:51:26;7.70;;;3.75;;
15677;SDS011;7939;50.814;6.368;2023-06-26T07:53:53;10.65;;;3.45;;
15677;SDS011;7939;50.814;6.368;2023-06-26T07:56:20;10.65;;;3.40;;
15677;SDS011;7939;50.814;6.368;2023-06-26T07:58:46;7.60;;;3.72;;
15677;SDS011;7939;50.814;6.368;2023-06-26T08:01:14;5.95;;;3.80;;
15677;SDS011;7939;50.814;6.368;2023-06-26T08:03:41;8.93;;;3.92;;
15677;SDS011;7939;50.814;6.368;2023-06-26T08:06:07;7.03;;;3.90;;
15677;SDS011;7939;50.814;6.368;2023-06-26T08:08:34;10.50;;;3.60;;
15677;SDS011;7939;50.814;6.368;2023-06-26T08:11:01;7.80;;;3.13;;
15677;SDS011;7939;50.814;6.368;2023-06-26T08:13:27;7.15;;;3.50;;
15677;SDS011;7939;50.814;6.368;2023-06-26T08:15:54;9.23;;;3.55;;
15677;SDS011;7939;50.814;6.368;2023-06-26T08:18:22;6.30;;;3.22;;
15677;SDS011;7939;50.814;6.368;2023-06-26T08:20:49;6.50;;;2.78;;
15677;SDS011;7939;50.814;6.368;2023-06-26T08:23:15;9.90;;;2.88;;
15677;SDS011;7939;50.814;6.368;2023-06-26T08:25:42;9.23;;;3.95;;
15677;SDS011;7939;50.814;6.368;2023-06-26T08:28:09;9.60;;;3.10;;
15677;SDS011;7939;50.814;6.368;2023-06-26T08:30:36;8.63;;;3.40;;
15677;SDS011;7939;50.814;6.368;2023-06-26T08:33:02;7.82;;;3.15;;
15677;SDS011;7939;50.814;6.368;2023-06-26T08:35:30;12.10;;;3.08;;
15677;SDS011;7939;50.814;6.368;2023-06-26T08:37:57;4.55;;;2.80;;
15677;SDS011;7939;50.814;6.368;2023-06-26T08:40:24;5.05;;;2.58;;
15677;SDS011;7939;50.814;6.368;2023-06-26T08:42:51;8.77;;;2.95;;
15677;SDS011;7939;50.814;6.368;2023-06-26T08:45:18;7.85;;;3.38;;
15677;SDS011;7939;50.814;6.368;2023-06-26T08:47:46;6.18;;;2.75;;
15677;SDS011;7939;50.814;6.368;2023-06-26T08:50:17;5.45;;;2.38;;
15677;SDS011;7939;50.814;6.368;2023-06-26T08:52:50;10.05;;;3.42;;
15677;SDS011;7939;50.814;6.368;2023-06-26T08:55:23;9.15;;;3.20;;
15677;SDS011;7939;50.814;6.368;2023-06-26T08:57:52;6.63;;;2.30;;
15677;SDS011;7939;50.814;6.368;2023-06-26T09:00:19;7.40;;;3.03;;
15677;SDS011;7939;50.814;6.368;2023-06-26T09:02:46;7.07;;;2.70;;
15677;SDS011;7939;50.814;6.368;2023-06-26T09:05:13;4.05;;;2.63;;
15677;SDS011;7939;50.814;6.368;2023-06-26T09:07:40;5.70;;;2.25;;
15677;SDS011;7939;50.814;6.368;2023-06-26T09:10:09;5.22;;;2.50;;
15677;SDS011;7939;50.814;6.368;2023-06-26T09:12:36;8.70;;;3.05;;
15677;SDS011;7939;50.814;6.368;2023-06-26T09:15:04;5.05;;;2.53;;
15677;SDS011;7939;50.814;6.368;2023-06-26T09:17:33;5.57;;;2.38;;
15677;SDS011;7939;50.814;6.368;2023-06-26T09:20:04;8.65;;;3.00;;
15677;SDS011;7939;50.814;6.368;2023-06-26T09:22:33;8.35;;;2.40;;
15677;SDS011;7939;50.814;6.368;2023-06-26T09:25:04;6.20;;;2.30;;
15677;SDS011;7939;50.814;6.368;2023-06-26T09:27:33;5.97;;;2.13;;
15677;SDS011;7939;50.814;6.368;2023-06-26T09:30:01;6.20;;;2.05;;
15677;SDS011;7939;50.814;6.368;2023-06-26T09:32:28;5.10;;;2.20;;
15677;SDS011;7939;50.814;6.368;2023-06-26T09:34:55;5.30;;;1.90;;
15677;SDS011;7939;50.814;6.368;2023-06-26T09:37:22;6.93;;;2.47;;
15677;SDS011;7939;50.814;6.368;2023-06-26T09:39:50;7.97;;;2.33;;
15677;SDS011;7939;50.814;6.368;2023-06-26T09:42:17;4.85;;;1.80;;
15677;SDS011;7939;50.814;6.368;2023-06-26T09:44:45;6.05;;;1.73;;
15677;SDS011;7939;50.814;6.368;2023-06-26T09:47:12;5.03;;;2.25;;
15677;SDS011;7939;50.814;6.368;2023-06-26T09:49:42;9.07;;;2.33;;
15677;SDS011;7939;50.814;6.368;2023-06-26T09:52:09;7.35;;;2.47;;
15677;SDS011;7939;50.814;6.368;2023-06-26T09:54:40;4.47;;;1.98;;
15677;SDS011;7939;50.814;6.368;2023-06-26T09:57:06;8.10;;;1.95;;
15677;SDS011;7939;50.814;6.368;2023-06-26T09:59:33;5.53;;;2.10;;
15677;SDS011;7939;50.814;6.368;2023-06-26T10:02:02;6.13;;;2.50;;
15677;SDS011;7939;50.814;6.368;2023-06-26T10:04:29;6.13;;;2.53;;
15677;SDS011;7939;50.814;6.368;2023-06-26T10:06:56;11.13;;;2.63;;
15677;SDS011;7939;50.814;6.368;2023-06-26T10:09:24;4.60;;;2.22;;
15677;SDS011;7939;50.814;6.368;2023-06-26T10:11:51;4.95;;;2.60;;
15677;SDS011;7939;50.814;6.368;2023-06-26T10:14:22;3.85;;;2.00;;
15677;SDS011;7939;50.814;6.368;2023-06-26T10:16:53;5.25;;;1.80;;
15677;SDS011;7939;50.814;6.368;2023-06-26T10:19:25;4.30;;;1.70;;
15677;SDS011;7939;50.814;6.368;2023-06-26T10:21:54;9.07;;;2.20;;
15677;SDS011;7939;50.814;6.368;2023-06-26T10:24:22;5.53;;;2.20;;
15677;SDS011;7939;50.814;6.368;2023-06-26T10:26:50;4.55;;;1.77;;
15677;SDS011;7939;50.814;6.368;2023-06-26T10:29:21;6.88;;;2.10;;
15677;SDS011;7939;50.814;6.368;2023-06-26T10:31:50;6.35;;;2.03;;
15677;SDS011;7939;50.814;6.368;2023-06-26T10:34:22;4.53;;;1.77;;
15677;SDS011;7939;50.814;6.368;2023-06-26T10:36:58;5.22;;;2.00;;
15677;SDS011;7939;50.814;6.368;2023-06-26T10:39:26;3.60;;;1.73;;
15677;SDS011;7939;50.814;6.368;2023-06-26T10:41:54;5.28;;;1.90;;
15677;SDS011;7939;50.814;6.368;2023-06-26T10:44:21;4.45;;;1.92;;
15677;SDS011;7939;50.814;6.368;2023-06-26T10:46:48;2.60;;;1.60;;
15677;SDS011;7939;50.814;6.368;2023-06-26T10:49:17;4.90;;;2.00;;
15677;SDS011;7939;50.814;6.368;2023-06-26T10:51:47;2.35;;;1.50;;
15677;SDS011;7939;50.814;6.368;2023-06-26T10:54:16;3.33;;;1.77;;
15677;SDS011;7939;50.814;6.368;2023-06-26T10:56:44;3.67;;;1.60;;
15677;SDS011;7939;50.814;6.368;2023-06-26T10:59:16;2.47;;;1.65;;
15677;SDS011;7939;50.814;6.368;2023-06-26T11:01:44;3.65;;;1.48;;
15677;SDS011;7939;50.814;6.368;2023-06-26T11:04:12;4.93;;;1.73;;
15677;SDS011;7939;50.814;6.368;2023-06-26T11:06:43;4.20;;;1.60;;
15677;SDS011;7939;50.814;6.368;2023-06-26T11:09:14;6.00;;;1.38;;
15677;SDS011;7939;50.814;6.368;2023-06-26T11:11:59;3.10;;;1.23;;
15677;SDS011;7939;50.814;6.368;2023-06-26T11:14:29;5.00;;;2.40;;
15677;SDS011;7939;50.814;6.368;2023-06-26T11:16:57;3.75;;;1.70;;
15677;SDS011;7939;50.814;6.368;2023-06-26T11:19:25;4.00;;;1.92;;
15677;SDS011;7939;50.814;6.368;2023-06-26T11:21:55;6.75;;;1.50;;
15677;SDS011;7939;50.814;6.368;2023-06-26T11:24:25;3.90;;;1.75;;
15677;SDS011;7939;50.814;6.368;2023-06-26T11:26:52;3.03;;;1.60;;
15677;SDS011;7939;50.814;6.368;2023-06-26T11:29:19;5.43;;;1.70;;
15677;SDS011;7939;50.814;6.368;2023-06-26T11:31:45;5.38;;;1.50;;
15677;SDS011;7939;50.814;6.368;2023-06-26T11:34:12;4.93;;;1.60;;
15677;SDS011;7939;50.814;6.368;2023-06-26T11:36:41;2.50;;;1.45;;
15677;SDS011;7939;50.814;6.368;2023-06-26T11:39:11;5.03;;;1.85;;
15677;SDS011;7939;50.814;6.368;2023-06-26T11:41:40;3.40;;;1.33;;
15677;SDS011;7939;50.814;6.368;2023-06-26T11:44:07;3.55;;;1.40;;
15677;SDS011;7939;50.814;6.368;2023-06-26T11:46:35;4.32;;;1.67;;
15677;SDS011;7939;50.814;6.368;2023-06-26T11:49:02;3.50;;;1.55;;
15677;SDS011;7939;50.814;6.368;2023-06-26T11:51:29;3.38;;;1.52;;
15677;SDS011;7939;50.814;6.368;2023-06-26T11:53:56;4.28;;;1.50;;
15677;SDS011;7939;50.814;6.368;2023-06-26T11:56:23;2.85;;;1.13;;
15677;SDS011;7939;50.814;6.368;2023-06-26T11:59:00;6.40;;;2.17;;
15677;SDS011;7939;50.814;6.368;2023-06-26T12:01:30;3.80;;;1.95;;
15677;SDS011;7939;50.814;6.368;2023-06-26T12:03:59;1.70;;;1.17;;
15677;SDS011;7939;50.814;6.368;2023-06-26T12:06:28;4.25;;;1.58;;
15677;SDS011;7939;50.814;6.368;2023-06-26T12:08:56;5.38;;;1.70;;
15677;SDS011;7939;50.814;6.368;2023-06-26T12:11:25;6.93;;;2.00;;
15677;SDS011;7939;50.814;6.368;2023-06-26T12:13:53;4.00;;;1.63;;
15677;SDS011;7939;50.814;6.368;2023-06-26T12:16:22;3.50;;;1.30;;
15677;SDS011;7939;50.814;6.368;2023-06-26T12:18:48;1.88;;;1.05;;
15677;SDS011;7939;50.814;6.368;2023-06-26T12:24:12;4.25;;;1.20;;
15677;SDS011;7939;50.814;6.368;2023-06-26T12:26:41;2.25;;;1.38;;
15677;SDS011;7939;50.814;6.368;2023-06-26T12:29:09;4.32;;;1.90;;
15677;SDS011;7939;50.814;6.368;2023-06-26T12:31:40;4.40;;;1.50;;
15677;SDS011;7939;50.814;6.368;2023-06-26T12:34:11;2.22;;;1.33;;
15677;SDS011;7939;50.814;6.368;2023-06-26T12:36:42;4.90;;;1.30;;
15677;SDS011;7939;50.814;6.368;2023-06-26T12:39:09;4.30;;;1.73;;
15677;SDS011;7939;50.814;6.368;2023-06-26T12:41:47;4.38;;;1.50;;
15677;SDS011;7939;50.814;6.368;2023-06-26T12:44:18;2.38;;;1.10;;
15677;SDS011;7939;50.814;6.368;2023-06-26T12:46:48;4.68;;;1.55;;
15677;SDS011;7939;50.814;6.368;2023-06-26T12:49:16;2.75;;;1.50;;
15677;SDS011;7939;50.814;6.368;2023-06-26T12:51:44;1.70;;;1.33;;
15677;SDS011;7939;50.814;6.368;2023-06-26T12:54:11;5.07;;;1.40;;
15677;SDS011;7939;50.814;6.368;2023-06-26T12:56:37;3.97;;;1.42;;
15677;SDS011;7939;50.814;6.368;2023-06-26T12:59:04;5.30;;;1.40;;
15677;SDS011;7939;50.814;6.368;2023-06-26T13:01:31;4.22;;;1.35;;
15677;SDS011;7939;50.814;6.368;2023-06-26T13:03:59;3.30;;;1.67;;
15677;SDS011;7939;50.814;6.368;2023-06-26T13:06:25;4.93;;;1.42;;
15677;SDS011;7939;50.814;6.368;2023-06-26T13:08:52;4.65;;;1.85;;
15677;SDS011;7939;50.814;6.368;2023-06-26T13:11:19;3.22;;;1.15;;
15677;SDS011;7939;50.814;6.368;2023-06-26T13:13:46;5.47;;;1.63;;
15677;SDS011;7939;50.814;6.368;2023-06-26T13:16:13;3.47;;;1.30;;
15677;SDS011;7939;50.814;6.368;2023-06-26T13:18:40;6.70;;;1.52;;
15677;SDS011;7939;50.814;6.368;2023-06-26T13:21:08;2.20;;;1.15;;
15677;SDS011;7939;50.814;6.368;2023-06-26T13:23:35;6.03;;;1.75;;
15677;SDS011;7939;50.814;6.368;2023-06-26T13:26:01;5.60;;;1.90;;
15677;SDS011;7939;50.814;6.368;2023-06-26T13:28:28;7.10;;;1.40;;
15677;SDS011;7939;50.814;6.368;2023-06-26T13:30:54;4.28;;;1.60;;
15677;SDS011;7939;50.814;6.368;2023-06-26T13:33:21;4.20;;;1.23;;
15677;SDS011;7939;50.814;6.368;2023-06-26T13:35:50;2.95;;;1.10;;
15677;SDS011;7939;50.814;6.368;2023-06-26T13:38:18;2.65;;;1.38;;
15677;SDS011;7939;50.814;6.368;2023-06-26T13:40:49;3.33;;;1.33;;
15677;SDS011;7939;50.814;6.368;2023-06-26T13:43:16;4.38;;;1.30;;
15677;SDS011;7939;50.814;6.368;2023-06-26T13:45:42;6.90;;;1.52;;
15677;SDS011;7939;50.814;6.368;2023-06-26T13:48:09;2.03;;;1.30;;
15677;SDS011;7939;50.814;6.368;2023-06-26T13:50:36;4.82;;;1.70;;
15677;SDS011;7939;50.814;6.368;2023-06-26T13:53:02;4.65;;;1.20;;
15677;SDS011;7939;50.814;6.368;2023-06-26T13:55:30;2.60;;;1.30;;
15677;SDS011;7939;50.814;6.368;2023-06-26T13:57:57;3.10;;;1.23;;
15677;SDS011;7939;50.814;6.368;2023-06-26T14:00:24;2.47;;;1.30;;
15677;SDS011;7939;50.814;6.368;2023-06-26T14:02:51;2.75;;;1.40;;
15677;SDS011;7939;50.814;6.368;2023-06-26T14:05:17;2.47;;;1.52;;
15677;SDS011;7939;50.814;6.368;2023-06-26T14:07:44;5.63;;;1.42;;
15677;SDS011;7939;50.814;6.368;2023-06-26T14:10:11;5.03;;;1.70;;
15677;SDS011;7939;50.814;6.368;2023-06-26T14:12:39;4.32;;;1.63;;
15677;SDS011;7939;50.814;6.368;2023-06-26T14:15:07;3.63;;;1.65;;
15677;SDS011;7939;50.814;6.368;2023-06-26T14:17:35;5.82;;;1.38;;
15677;SDS011;7939;50.814;6.368;2023-06-26T14:20:01;4.43;;;1.55;;
15677;SDS011;7939;50.814;6.368;2023-06-26T14:22:30;1.55;;;1.15;;
15677;SDS011;7939;50.814;6.368;2023-06-26T14:24:58;2.60;;;1.35;;
15677;SDS011;7939;50.814;6.368;2023-06-26T14:27:24;4.45;;;1.13;;
15677;SDS011;7939;50.814;6.368;2023-06-26T14:29:52;2.75;;;1.60;;
15677;SDS011;7939;50.814;6.368;2023-06-26T14:32:19;4.28;;;1.20;;
15677;SDS011;7939;50.814;6.368;2023-06-26T14:34:46;2.53;;;1.60;;
15677;SDS011;7939;50.814;6.368;2023-06-26T14:37:12;3.10;;;1.60;;
15677;SDS011;7939;50.814;6.368;2023-06-26T14:39:39;6.38;;;1.40;;
15677;SDS011;7939;50.814;6.368;2023-06-26T14:42:07;4.03;;;1.60;;
15677;SDS011;7939;50.814;6.368;2023-06-26T14:44:33;3.53;;;1.38;;
15677;SDS011;7939;50.814;6.368;2023-06-26T14:47:02;5.65;;;1.40;;
15677;SDS011;7939;50.814;6.368;2023-06-26T14:49:29;2.33;;;1.17;;
15677;SDS011;7939;50.814;6.368;2023-06-26T14:51:56;3.28;;;1.85;;
15677;SDS011;7939;50.814;6.368;2023-06-26T14:54:23;5.65;;;1.33;;
15677;SDS011;7939;50.814;6.368;2023-06-26T14:56:50;2.75;;;1.38;;
15677;SDS011;7939;50.814;6.368;2023-06-26T14:59:16;4.50;;;1.63;;
15677;SDS011;7939;50.814;6.368;2023-06-26T15:01:43;4.10;;;1.60;;
15677;SDS011;7939;50.814;6.368;2023-06-26T15:04:11;3.55;;;1.23;;
15677;SDS011;7939;50.814;6.368;2023-06-26T15:06:37;3.83;;;1.25;;